Weather observations for the past three days for
Hebron, Hebron Municipal Airport
Metric (Imperial)
Date Time (cdt) Wind (kph) Vis. (km) Weather Sky Cond. Temperature (ºC) Relative Humidity Wind Chill (°C) Heat Index (°C) Pressure Precipitation (cm)
Air Dwpt 6 hour altimeter (cm) sea level (mb) 1 hr 3 hr 6 hr
Max. Min.
04 10:55 NW 9 16.09 Fair CLR 24.6 2.7 24% 25 75.29 0.0
04 10:35 NW 11 16.09 Fair CLR 23.3 3 27% 75.31 0.0
04 10:15 NW 11 16.09 Fair CLR 21.9 3.1 29% 75.31 0.0
04 09:55 NW 9 16.09 Fair CLR 21 3.7 32% 75.31 0.0
04 09:35 NW 13 16.09 Fair CLR 19.7 4.3 36% 75.31 0.0
04 09:15 NW 13 16.09 Fair CLR 18.1 4 39% 75.31 0.0
04 08:55 NW 9 16.09 Fair CLR 16.9 4.4 44% 75.29 0.0
04 08:35 W 7 16.09 Fair CLR 15 5 51% 75.29 0.0
04 08:15 Calm 16.09 Fair CLR 12.8 4.7 58% 75.29 0.0
04 07:55 Calm 16.09 Fair CLR 11 3.9 62% 75.26 0.0
04 07:35 NW 7 16.09 Fair CLR 10 3.4 64% 9 75.26 0.0
04 06:55 W 6 16.09 Fair CLR 8.3 2.7 14.2 7.6 68% 75.26 0.0
04 06:35 Calm 16.09 Fair CLR 8.1 2.7 69% 75.21 0.0
04 06:15 Calm 16.09 Fair CLR 8.4 2.6 67% 75.21 0.0
04 05:55 Calm 16.09 Fair CLR 9.3 2.5 63% 75.21 0.0
04 05:35 Calm 16.09 Fair CLR 11.3 2 53% 75.21 0.0
04 05:15 Calm 16.09 Fair CLR 12.1 2 50% 75.21 0.0
04 04:55 E 6 16.09 Fair CLR 13.6 1.5 44% 75.23 0.0
04 04:35 E 6 16.09 Fair CLR 12.6 2.5 50% 75.23 0.0
04 04:15 S 15 16.09 Fair CLR 13.5 2.1 46% 75.23 0.0
04 03:55 SE 6 16.09 Fair CLR 12.2 2.5 52% 75.29 0.0
04 03:35 Calm 16.09 Fair CLR 10.6 3.3 61% 75.31 0.0
04 03:20 SE 9 16.09 Fair CLR 10.6 2.9 59% 75.29 0.0
04 02:55 Calm 16.09 Fair CLR 9.5 3.2 65% 75.34 0.0
04 02:35 Calm 16.09 Fair CLR 10 3.5 64% 75.39 0.0
04 02:15 Calm 16.09 Fair CLR 10.1 3.5 64% 75.41 0.0
04 01:55 Calm 16.09 Fair CLR 10.2 3.1 62% 75.44 0.0
04 01:35 Calm 16.09 Fair CLR 10.6 3.2 61% 75.46 0.0
04 01:15 Calm 16.09 Fair CLR 11.5 3.2 57% 75.49 0.0
04 00:55 SE 6 16.09 Fair CLR 11 3.4 24.3 11 60% 75.51 0.0
04 00:35 Calm 16.09 Fair CLR 11.6 3.4 57% 75.51 0.0
04 00:15 Calm 16.09 Fair CLR 13.1 2.9 50% 75.54 0.0
03 23:55 SE 7 16.09 Fair CLR 12 3.1 55% 75.57 0.0
03 23:35 Calm 16.09 Fair CLR 14.4 2.2 44% 75.57 0.0
03 23:15 Calm 16.09 Fair CLR 15 2.2 42% 75.59 0.0
03 22:55 Calm 16.09 Fair CLR 15.7 2.3 41% 75.62 0.0
03 22:35 E 6 16.09 Fair CLR 15.6 2.5 42% 75.59 0.0
03 22:15 Calm 16.09 Fair CLR 17.1 2.2 37% 75.59 0.0
03 21:55 E 7 16.09 Fair CLR 17 2.5 38% 75.62 0.0
03 21:35 E 6 16.09 Fair CLR 18.2 1.7 33% 75.62 0.0
03 21:15 Calm 16.09 Fair CLR 18.7 1.3 31% 75.62 0.0
03 20:55 E 11 16.09 Fair CLR 18.7 2.4 34% 75.59 0.0
03 20:35 E 11 16.09 Fair CLR 20 1.5 29% 75.59 0.0
03 20:15 NE 13 16.09 Fair CLR 20.6 1.3 28% 75.59 0.0
03 19:55 E 11 16.09 Fair CLR 21.8 1.2 26% 75.62 0.0
03 19:35 NE 11 16.09 Fair CLR 22.6 1.3 25% 75.62 0.0
03 19:15 E 13 16.09 Fair CLR 23.5 0.6 22% 75.62 0.0
03 18:55 E 9 16.09 Fair CLR 24.4 0.2 26.9 24.4 20% 25 75.62 0.0
03 18:35 E 9 16.09 Fair CLR 25.2 -0.1 19% 25 75.62 0.0
03 18:15 E 9 16.09 Fair CLR 25.7 -1.2 17% 25 75.64 0.0
03 17:55 NE 9 16.09 Fair CLR 26.4 -2.1 15% 26 75.67 0.0
03 17:35 NE 11 16.09 Fair CLR 26.5 -1.6 16% 26 75.67 0.0
03 17:15 E 11 16.09 Fair CLR 26.6 -2.3 15% 26 75.69 0.0
03 16:55 NE 6 16.09 Fair CLR 26.5 -2 15% 26 75.69 0.0
03 16:35 W 6 16.09 Fair CLR 26.7 -3 14% 26 75.72 0.0
03 16:15 SW 9 16.09 Fair CLR 26.7 -2.9 14% 26 75.74 0.0
03 15:55 W 6 16.09 Fair CLR 26.5 -3 14% 26 75.77 0.0
03 15:35 NE 7 16.09 Fair CLR 26 -2.7 15% 25 75.79 0.0
03 15:15 E 9 16.09 Fair CLR 26.5 -1.6 16% 26 75.79 0.0
03 14:55 E 11 16.09 Fair CLR 26.4 -1.5 16% 26 75.82 0.0
03 14:35 N 6 16.09 Fair CLR 26.2 -2 15% 25 75.87 0.0
03 14:15 W 9 16.09 Fair CLR 25.8 -2.2 16% 25 75.87 0.0
03 13:55 NE 7 16.09 Fair CLR 25.4 -1.5 17% 25 75.87 0.0
03 13:35 Calm 16.09 Fair CLR 25.5 -2 16% 25 75.9 0.0
03 13:15 N 7 16.09 Fair CLR 25 -1.7 17% 25 75.92 0.0
03 12:55 N 19 16.09 Fair CLR 24.9 -1.4 25 9.2 18% 25 75.95 0.0
03 12:35 NE 7 G 28 16.09 Fair CLR 24.1 -1.4 18% 24 75.95 0.0
03 12:15 N 9 16.09 Fair CLR 23.6 -1.3 19% 75.97 0.0
03 11:55 NE 19 G 26 16.09 Fair CLR 23.3 -1.1 20% 75.97 0.0
03 11:35 N 13 16.09 Fair CLR 22.9 -0.8 21% 76 0.0
03 11:15 N 11 16.09 Fair CLR 21.4 -0.6 23% 76.02 0.0
03 10:55 N 9 16.09 Fair CLR 20.5 -0.4 25% 76.02 0.0
03 10:35 N 6 16.09 Fair CLR 19.7 -0.2 26% 76 0.0
03 10:15 N 7 16.09 Fair CLR 19.2 -0.4 27% 76 0.0
03 09:55 W 7 16.09 Fair CLR 18.7 0.4 29% 76 0.0
03 09:35 W 11 16.09 Fair CLR 17.6 1.7 35% 76 0.0
03 09:15 W 15 16.09 Fair CLR 16.9 2.1 37% 75.97 0.0
03 08:55 W 11 16.09 Fair CLR 15.9 2.4 40% 76 0.0
03 08:35 NW 6 16.09 Fair CLR 14.7 2.8 45% 76 0.0
03 08:15 SW 11 16.09 Fair CLR 12.8 2.7 51% 75.97 0.0
03 07:55 SW 17 16.09 Fair CLR 11 2.5 56% 75.95 0.0
03 07:35 SW 11 16.09 Fair CLR 9.4 2.1 61% 8 76 0.0
03 07:15 SW 7 16.09 Fair CLR 9.2 2 61% 8 76.02 0.0
03 06:55 NW 11 16.09 Fair CLR 10 2.2 13 10 59% 9 76.02 0.0
03 06:35 NW 17 16.09 Fair CLR 10.6 2 56% 75.95 0.0
03 06:15 SW 15 16.09 Fair CLR 10.7 1.6 54% 75.9 0.0
03 05:35 SW 19 G 28 16.09 Fair CLR 10.8 1 51% 75.9 0.0
03 05:15 SW 22 G 30 16.09 Fair CLR 10.8 0.5 49% 75.92 0.0
03 04:55 SW 19 G 35 16.09 Fair CLR 10.8 0 48% 75.92 0.0
03 04:35 SW 19 G 28 16.09 Fair CLR 10.7 -0.1 48% 75.95 0.0
03 04:15 SW 20 16.09 Fair CLR 11.1 -0.5 45% 75.95 0.0
03 03:55 SW 20 G 33 16.09 Fair CLR 11.5 -0.8 43% 75.97 0.0
03 03:35 SW 20 G 30 16.09 Fair CLR 11.7 -1.1 41% 75.97 0.0
03 03:15 SW 26 G 35 16.09 Fair CLR 12 -1.3 40% 75.97 0.0
03 02:55 SW 28 G 37 16.09 Fair CLR 12 -1.5 39% 76 0.0
03 02:35 SW 22 16.09 Fair CLR 11.6 -1.3 41% 76.02 0.0
03 02:15 SW 22 16.09 Fair CLR 11.6 -1.5 40% 76.02 0.0
03 01:55 SW 20 G 31 16.09 Fair CLR 12.1 -1.6 39% 76.02 0.0
03 01:35 S 24 G 33 16.09 Fair CLR 12.8 -2 36% 76.05 0.0
03 01:15 S 22 G 30 16.09 Fair CLR 12.8 -2.2 36% 76.07 0.0
03 00:55 S 15 16.09 Fair CLR 12.9 -2.8 20.5 12.7 34% 76.07 0.0
03 00:35 S 17 G 26 16.09 Fair CLR 13.1 -3.2 32% 76.07 0.0
03 00:15 S 15 16.09 Fair CLR 13 -3.2 33% 76.07 0.0
02 23:55 S 17 16.09 Fair CLR 13 -2.7 34% 76.1 0.0
02 23:35 S 20 16.09 Fair CLR 13.5 -2.9 32% 76.1 0.0
02 23:15 S 22 16.09 Fair CLR 13.6 -2.8 32% 76.12 0.0
02 22:55 S 20 16.09 Fair CLR 13.5 -2.7 33% 76.15 0.0
02 22:35 S 19 16.09 Fair CLR 13.6 -2.7 32% 76.17 0.0
02 22:15 S 19 16.09 Fair CLR 13.5 -2.8 32% 76.17 0.0
02 21:55 S 17 16.09 Fair CLR 13.3 -3.3 32% 76.2 0.0
02 21:35 S 15 16.09 Fair CLR 13.3 -3.7 31% 76.2 0.0
02 21:15 S 11 16.09 Fair CLR 13.6 -3.5 31% 76.2 0.0
02 20:55 S 11 16.09 Fair CLR 14.1 -3.7 29% 76.2 0.0
02 20:35 S 11 16.09 Fair CLR 15.8 -4.7 24% 76.2 0.0
02 20:15 S 13 16.09 Fair CLR 17 -4.9 22% 76.2 0.0
02 19:55 SW 9 16.09 Fair CLR 18.5 -5.7 19% 76.2 0.0
02 19:35 SW 11 16.09 Fair CLR 19.5 -6.6 17% 76.2 0.0
02 19:15 SW 9 16.09 Fair CLR 20.2 -7.6 15% 76.23 0.0
02 18:55 SW 9 16.09 Fair CLR 20.5 -8.6 21.1 17.5 13% 76.25 0.0
02 18:35 SW 17 16.09 Fair CLR 20.6 -9.6 12% 76.28 0.0
02 18:15 W 13 16.09 Fair CLR 20.7 -9.5 12% 76.28 0.0
02 17:55 W 13 16.09 Fair CLR 20.7 -8.8 13% 76.28 0.0
02 17:35 W 19 16.09 Fair CLR 20.9 -9.7 12% 76.3 0.0
02 17:15 W 13 16.09 Fair CLR 21.1 -9.3 12% 76.3 0.0
02 16:55 W 17 G 28 16.09 Fair CLR 20.9 -9.8 12% 76.33 0.0
02 16:35 W 19 16.09 Fair CLR 21.1 -9 12% 76.35 0.0
02 16:15 W 15 16.09 Fair CLR 20.7 -9.6 12% 76.38 0.0
02 15:55 NW 17 16.09 Fair CLR 20.7 -9.7 12% 76.4 0.0
02 15:35 W 20 G 28 16.09 Fair CLR 20.3 -8.3 14% 76.43 0.0
02 15:15 W 11 G 26 16.09 Fair CLR 19.8 -8.3 14% 76.43 0.0
02 14:55 N 7 16.09 Fair CLR 19.1 -8.1 15% 76.45 0.0
02 14:35 W 7 16.09 Fair CLR 19.2 -7.2 16% 76.48 0.0
02 14:15 NW 9 16.09 Fair CLR 18.7 -7.4 16% 76.5 0.0
02 13:55 SW 13 16.09 Fair CLR 18.6 -7 17% 76.53 0.0
02 13:35 SW 11 16.09 Fair CLR 18.3 -6.5 18% 76.53 0.0
02 13:15 NW 9 16.09 Fair CLR 17.7 -6.8 18% 76.56 0.0
02 12:55 NW 9 G 26 16.09 Fair CLR 17.9 -6 17.9 -0.3 19% 76.58 0.0
02 12:35 W 7 16.09 Fair CLR 17.3 -6.5 19% 76.61 0.0
02 12:15 N 11 16.09 Fair CLR 16.7 -5.6 21% 76.63 0.0
02 11:55 W 15 16.09 Fair CLR 15.6 -5.8 23% 76.66 0.0
02 11:35 NW 11 16.09 Fair CLR 15.5 -5.2 24% 76.68 0.0
02 11:15 N 13 16.09 Fair CLR 15.2 -5.2 24% 76.68 0.0
02 10:55 NW 6 16.09 Fair CLR 14.7 -5.1 25% 76.68 0.0
02 10:35 W 7 16.09 Fair CLR 14 -5.3 26% 76.71 0.0
02 10:15 W 6 16.09 Fair CLR 13.3 -5.7 26% 76.71 0.0
02 09:55 Calm 16.09 Fair CLR 12.4 -4.2 31% 76.71 0.0
02 09:35 Calm 16.09 Fair CLR 11.2 -3.6 36% 76.71 0.0
02 09:15 Calm 16.09 Fair CLR 10 -2.4 42% 76.73 0.0
02 08:55 Calm 16.09 Fair CLR 8 -1.1 53% 76.73 0.0
02 08:35 Calm 16.09 Fair CLR 5.6 -0.9 63% 76.73 0.0
02 08:15 W 6 16.09 Fair CLR 3.4 -2.2 67% 76.73 0.0
02 07:55 Calm 16.09 Fair CLR 2.2 -2.6 71% 76.73 0.0
02 07:35 W 6 16.09 Fair CLR 1.2 -3.1 73% 76.71 0.0
02 07:15 Calm 16.09 Fair CLR 0.3 -3.5 76% 76.71 0.0
02 06:55 Calm 16.09 Fair CLR -0.5 -3.9 3.2 -1.1 78% 76.71 0.0
02 06:35 Calm 16.09 Fair CLR -1 -4 80% 76.68 0.0
02 06:15 Calm 16.09 Fair CLR -0.6 -3.9 79% 76.68 0.0
02 05:55 Calm 16.09 Fair CLR -0.6 -3.7 80% 76.68 0.0
02 05:35 Calm 16.09 Fair CLR -1.1 -3.9 82% 76.68 0.0
02 05:15 Calm 16.09 Fair CLR -0.5 -3.7 79% 76.66 0.0
02 04:55 Calm 16.09 Fair CLR -0.1 -3.6 78% 76.66 0.0
02 04:35 Calm 16.09 Fair CLR 0 -3.5 78% 76.66 0.0
02 04:15 Calm 16.09 Fair CLR 0 -3.5 78% 76.66 0.0
02 03:55 Calm 16.09 Fair CLR -0.2 -3.5 79% 76.66 0.0
02 03:35 Calm 16.09 Fair CLR 0.3 -3 79% 76.63 0.0
02 03:15 Calm 16.09 Fair CLR 1.1 -3.3 73% 76.63 0.0
02 02:55 Calm 16.09 Fair CLR 1.6 -3.3 70% 76.66 0.0
02 02:15 Calm 16.09 Fair CLR 2.6 -3.3 65% 76.66 0.0
02 01:55 Calm 16.09 Fair CLR 2.2 -3 69% 76.63 0.0
02 01:35 Calm 16.09 Fair CLR 2.3 -3.1 68% 76.63 0.0
02 01:15 Calm 16.09 Fair CLR 3 -3.5 63% 76.63 0.0
02 00:55 Calm 16.09 Fair CLR 2.7 -3.1 16.3 2.6 66% 76.63 0.0
02 00:35 Calm 16.09 Fair CLR 3.4 -3.5 61% 76.61 0.0
02 00:15 Calm 16.09 Fair CLR 2.7 -3 66% 76.61 0.0
01 23:55 Calm 16.09 Fair CLR 3.7 -3.3 61% 76.58 0.0
01 23:35 Calm 16.09 Fair CLR 5.5 -3.7 52% 76.58 0.0
01 23:15 Calm 16.09 Fair CLR 5.2 -3.7 53% 76.58 0.0
01 22:55 Calm 16.09 Fair CLR 6.8 -4.3 45% 76.58 0.0
01 22:35 Calm 16.09 Fair CLR 6.8 -4 46% 76.58 0.0
01 22:15 Calm 16.09 Fair CLR 6.2 -3.6 50% 76.56 0.0
01 21:55 NE 7 16.09 Fair CLR 8.1 -4.3 42% 7 76.53 0.0
01 21:35 NE 9 16.09 Fair CLR 9.6 -5 36% 9 76.5 0.0
01 21:15 NE 13 16.09 Fair CLR 10.2 -5.2 34% 76.48 0.0
01 20:55 NE 11 16.09 Fair CLR 11 -5.4 31% 76.45 0.0
01 20:35 NE 13 16.09 Fair CLR 12 -5.7 29% 76.43 0.0
01 20:15 NE 15 16.09 Fair CLR 13.4 -5.4 27% 76.4 0.0
01 19:55 N 17 16.09 Fair CLR 14.3 -4.9 26% 76.4 0.0
01 19:35 N 19 G 28 16.09 Fair CLR 15.3 -4.9 25% 76.35 0.0
01 19:15 NE 15 16.09 Fair CLR 16 -4.8 24% 76.35 0.0
01 18:55 N 19 G 28 16.09 Fair CLR 16.2 -4.8 18 14.5 23% 76.33 0.0
01 18:35 N 20 G 26 16.09 Fair CLR 16.5 -4.7 23% 76.33 0.0
01 18:15 N 19 G 28 16.09 Partly Cloudy SCT080 17 -4.4 23% 76.35 0.0
01 17:55 N 28 G 35 16.09 Overcast OVC090 16.6 -4.4 24% 76.35 0.0
01 17:35 N 15 G 31 16.09 Mostly Cloudy BKN090 16.5 -4.6 23% 76.35 0.0
01 17:15 N 13 G 33 16.09 Overcast SCT080 OVC090 17 -4.7 22% 76.35 0.0
01 16:55 N 15 G 28 16.09 Partly Cloudy SCT080 16.2 -4.6 24% 76.35 0.0
01 16:35 N 13 G 28 16.09 Partly Cloudy SCT080 17.2 -4.8 22% 76.38 0.0
01 16:15 NW 13 16.09 Partly Cloudy SCT090 17.1 -4.6 22% 76.38 0.0
01 15:55 N 7 16.09 Partly Cloudy SCT085 17.2 -4 23% 76.4 0.0
01 15:35 N 17 G 26 16.09 Partly Cloudy SCT085 16.5 -4.1 24% 76.4 0.0
01 15:15 N 6 G 28 16.09 Fair CLR 17.1 -3.8 24% 76.43 0.0
01 14:55 N 19 G 28 16.09 Partly Cloudy SCT070 17.1 -3.3 25% 76.43 0.0
01 14:35 NE 22 G 31 16.09 Partly Cloudy SCT070 16.8 -3.3 25% 76.43 0.0
01 14:15 N 11 16.09 Fair CLR 16.7 -3.5 25% 76.45 0.0
01 13:55 N 6 16.09 Partly Cloudy SCT120 16.2 -3 27% 76.45 0.0
01 13:35 NE 7 16.09 Mostly Cloudy SCT065 BKN120 15.3 -3.1 28% 76.45 0.0
01 13:15 N 19 G 26 16.09 Partly Cloudy SCT120 15.8 -2.7 28% 76.48 0.0
01 12:55 N 7 G 26 16.09 Partly Cloudy SCT100 SCT120 15 -2.9 15.4 1.8 29% 76.5 0.0
01 12:35 N 13 G 26 16.09 Mostly Cloudy BKN100 14.6 -2.8 30% 76.5 0.0
01 12:15 N 11 16.09 Overcast OVC110 14 -2.1 33% 76.5 0.0
01 11:55 N 7 16.09 Mostly Cloudy BKN110 13 -2 36% 76.53 0.0
01 11:35 N 13 16.09 Partly Cloudy SCT110 12.8 -1.7 37% 76.53 0.0
Date Time (cdt) Wind (kph) Vis. (km) Weather Sky Cond. Air Dwpt Max. Min. Relative Humidity Wind Chill (°C) Heat Index (°C) altimeter (cm) sea level (mb) 1 hr 3 hr 6 hr
6 hour
Temperature (ºC) Pressure Precipitation (cm)